Kenansville, North Carolina
Current Conditions -  °F | °C
As of 12:15 PM on Thursday 27 Nov 2014 (Local Time) from KDPL Reporting Station
Scattered Clouds Scattered Clouds  
Wind Chill: 51°   Ceiling: Unl
Heat Index: 51°   Visibility: 10mi
Dew Point: 40°   Wind: 13mph
Humidity: 67%   Direction: 290°WNW
Pressure: 30"   Gusts: 16mph
Location:  34.96°N, 77.96°W
Report Text: KDPL 271715Z AUTO 29011G14KT 10SM SCT024 10/05 A3000 RMK AO2 T01040045
Loading
Personal Weather Stations






























Interactive Weather Map New forecast layout! Learn more

10-Day Weather Forecast

Advertisements
Track Severe Weather on mobile